sensor_id;sensor_type;location;lat;lon;timestamp;temperature;humidity
11894;DHT22;6006;49.696;8.662;2023-04-29T00:00:43;10.40;99.90
11894;DHT22;6006;49.696;8.662;2023-04-29T00:03:10;10.30;99.90
11894;DHT22;6006;49.696;8.662;2023-04-29T00:05:37;10.30;99.90
11894;DHT22;6006;49.696;8.662;2023-04-29T00:08:05;10.20;99.90
11894;DHT22;6006;49.696;8.662;2023-04-29T00:10:31;10.20;99.90
11894;DHT22;6006;49.696;8.662;2023-04-29T00:13:00;10.30;99.90
11894;DHT22;6006;49.696;8.662;2023-04-29T00:15:26;10.20;99.90
11894;DHT22;6006;49.696;8.662;2023-04-29T00:17:53;10.20;99.90
11894;DHT22;6006;49.696;8.662;2023-04-29T00:20:20;10.20;99.90
11894;DHT22;6006;49.696;8.662;2023-04-29T00:22:47;10.10;99.90
11894;DHT22;6006;49.696;8.662;2023-04-29T00:25:14;10.10;99.90
11894;DHT22;6006;49.696;8.662;2023-04-29T00:27:41;10.10;99.90
11894;DHT22;6006;49.696;8.662;2023-04-29T00:30:10;10.10;99.90
11894;DHT22;6006;49.696;8.662;2023-04-29T00:32:37;10.00;99.90
11894;DHT22;6006;49.696;8.662;2023-04-29T00:35:05;10.00;99.90
11894;DHT22;6006;49.696;8.662;2023-04-29T00:37:32;10.00;99.90
11894;DHT22;6006;49.696;8.662;2023-04-29T00:39:59;10.00;99.90
11894;DHT22;6006;49.696;8.662;2023-04-29T00:42:26;9.90;99.90
11894;DHT22;6006;49.696;8.662;2023-04-29T00:44:53;9.90;99.90
11894;DHT22;6006;49.696;8.662;2023-04-29T00:47:21;9.70;99.90
11894;DHT22;6006;49.696;8.662;2023-04-29T00:49:48;9.60;99.90
11894;DHT22;6006;49.696;8.662;2023-04-29T00:52:16;9.60;99.90
11894;DHT22;6006;49.696;8.662;2023-04-29T00:54:44;9.60;99.90
11894;DHT22;6006;49.696;8.662;2023-04-29T00:57:11;9.50;99.90
11894;DHT22;6006;49.696;8.662;2023-04-29T00:59:38;9.50;99.90
11894;DHT22;6006;49.696;8.662;2023-04-29T01:02:05;9.50;99.90
11894;DHT22;6006;49.696;8.662;2023-04-29T01:04:33;9.40;99.90
11894;DHT22;6006;49.696;8.662;2023-04-29T01:07:05;9.50;99.90
11894;DHT22;6006;49.696;8.662;2023-04-29T01:12:32;9.50;99.90
11894;DHT22;6006;49.696;8.662;2023-04-29T01:15:03;9.60;99.90
11894;DHT22;6006;49.696;8.662;2023-04-29T01:17:36;9.60;99.90
11894;DHT22;6006;49.696;8.662;2023-04-29T01:20:06;9.60;99.90
11894;DHT22;6006;49.696;8.662;2023-04-29T01:22:34;9.60;99.90
11894;DHT22;6006;49.696;8.662;2023-04-29T01:25:03;9.60;99.90
11894;DHT22;6006;49.696;8.662;2023-04-29T01:27:33;9.60;99.90
11894;DHT22;6006;49.696;8.662;2023-04-29T01:30:07;9.60;99.90
11894;DHT22;6006;49.696;8.662;2023-04-29T01:32:42;9.60;99.90
11894;DHT22;6006;49.696;8.662;2023-04-29T01:35:24;9.60;99.90
11894;DHT22;6006;49.696;8.662;2023-04-29T01:37:59;9.60;99.90
11894;DHT22;6006;49.696;8.662;2023-04-29T01:40:35;9.70;99.90
11894;DHT22;6006;49.696;8.662;2023-04-29T01:43:04;9.70;99.90
11894;DHT22;6006;49.696;8.662;2023-04-29T01:45:35;9.80;99.90
11894;DHT22;6006;49.696;8.662;2023-04-29T01:48:06;9.80;99.90
11894;DHT22;6006;49.696;8.662;2023-04-29T01:50:33;9.80;99.90
11894;DHT22;6006;49.696;8.662;2023-04-29T01:53:00;9.80;99.90
11894;DHT22;6006;49.696;8.662;2023-04-29T01:55:27;9.80;99.90
11894;DHT22;6006;49.696;8.662;2023-04-29T01:57:55;9.80;99.90
11894;DHT22;6006;49.696;8.662;2023-04-29T02:00:22;9.80;99.90
11894;DHT22;6006;49.696;8.662;2023-04-29T02:02:49;9.80;99.90
11894;DHT22;6006;49.696;8.662;2023-04-29T02:05:15;9.80;99.90
11894;DHT22;6006;49.696;8.662;2023-04-29T02:07:42;9.70;99.90
11894;DHT22;6006;49.696;8.662;2023-04-29T02:10:10;9.70;99.90
11894;DHT22;6006;49.696;8.662;2023-04-29T02:12:37;9.60;99.90
11894;DHT22;6006;49.696;8.662;2023-04-29T02:15:07;9.70;99.90
11894;DHT22;6006;49.696;8.662;2023-04-29T02:17:34;9.70;99.90
11894;DHT22;6006;49.696;8.662;2023-04-29T02:20:01;9.70;99.90
11894;DHT22;6006;49.696;8.662;2023-04-29T02:22:28;9.70;99.90
11894;DHT22;6006;49.696;8.662;2023-04-29T02:24:54;9.70;99.90
11894;DHT22;6006;49.696;8.662;2023-04-29T02:27:22;9.70;99.90
11894;DHT22;6006;49.696;8.662;2023-04-29T02:29:49;9.70;99.90
11894;DHT22;6006;49.696;8.662;2023-04-29T02:32:18;9.70;99.90
11894;DHT22;6006;49.696;8.662;2023-04-29T02:34:45;9.70;99.90
11894;DHT22;6006;49.696;8.662;2023-04-29T02:37:12;9.60;99.90
11894;DHT22;6006;49.696;8.662;2023-04-29T02:39:40;9.70;99.90
11894;DHT22;6006;49.696;8.662;2023-04-29T02:42:07;9.70;99.90
11894;DHT22;6006;49.696;8.662;2023-04-29T02:44:33;9.70;99.90
11894;DHT22;6006;49.696;8.662;2023-04-29T02:47:00;9.70;99.90
11894;DHT22;6006;49.696;8.662;2023-04-29T02:49:29;9.70;99.90
11894;DHT22;6006;49.696;8.662;2023-04-29T02:51:55;9.70;99.90
11894;DHT22;6006;49.696;8.662;2023-04-29T02:54:23;9.70;99.90
11894;DHT22;6006;49.696;8.662;2023-04-29T02:56:49;9.60;99.90
11894;DHT22;6006;49.696;8.662;2023-04-29T02:59:16;9.60;99.90
11894;DHT22;6006;49.696;8.662;2023-04-29T03:01:43;9.60;99.90
11894;DHT22;6006;49.696;8.662;2023-04-29T03:04:10;9.60;99.90
11894;DHT22;6006;49.696;8.662;2023-04-29T03:06:38;9.50;99.90
11894;DHT22;6006;49.696;8.662;2023-04-29T03:09:06;9.40;99.90
11894;DHT22;6006;49.696;8.662;2023-04-29T03:11:33;9.30;99.90
11894;DHT22;6006;49.696;8.662;2023-04-29T03:13:59;9.30;99.90
11894;DHT22;6006;49.696;8.662;2023-04-29T03:16:26;9.40;99.90
11894;DHT22;6006;49.696;8.662;2023-04-29T03:18:54;9.40;99.90
11894;DHT22;6006;49.696;8.662;2023-04-29T03:21:22;9.50;99.90
11894;DHT22;6006;49.696;8.662;2023-04-29T03:23:51;9.50;99.90
11894;DHT22;6006;49.696;8.662;2023-04-29T03:26:17;9.50;99.90
11894;DHT22;6006;49.696;8.662;2023-04-29T03:28:44;9.50;99.90
11894;DHT22;6006;49.696;8.662;2023-04-29T03:31:11;9.60;99.90
11894;DHT22;6006;49.696;8.662;2023-04-29T03:33:40;9.50;99.90
11894;DHT22;6006;49.696;8.662;2023-04-29T03:36:07;9.50;99.90
11894;DHT22;6006;49.696;8.662;2023-04-29T03:38:35;9.50;99.90
11894;DHT22;6006;49.696;8.662;2023-04-29T03:41:03;9.50;99.90
11894;DHT22;6006;49.696;8.662;2023-04-29T03:43:30;9.50;99.90
11894;DHT22;6006;49.696;8.662;2023-04-29T03:45:57;9.50;99.90
11894;DHT22;6006;49.696;8.662;2023-04-29T03:48:23;9.50;99.90
11894;DHT22;6006;49.696;8.662;2023-04-29T03:50:50;9.50;99.90
11894;DHT22;6006;49.696;8.662;2023-04-29T03:53:17;9.40;99.90
11894;DHT22;6006;49.696;8.662;2023-04-29T03:55:45;9.40;99.90
11894;DHT22;6006;49.696;8.662;2023-04-29T03:58:14;9.50;99.90
11894;DHT22;6006;49.696;8.662;2023-04-29T04:00:41;9.50;99.90
11894;DHT22;6006;49.696;8.662;2023-04-29T04:03:07;9.50;99.90
11894;DHT22;6006;49.696;8.662;2023-04-29T04:05:34;9.60;99.90
11894;DHT22;6006;49.696;8.662;2023-04-29T04:08:01;9.60;99.90
11894;DHT22;6006;49.696;8.662;2023-04-29T04:10:28;9.70;99.90
11894;DHT22;6006;49.696;8.662;2023-04-29T04:12:55;9.70;99.90
11894;DHT22;6006;49.696;8.662;2023-04-29T04:15:23;9.70;99.90
11894;DHT22;6006;49.696;8.662;2023-04-29T04:17:50;9.80;99.90
11894;DHT22;6006;49.696;8.662;2023-04-29T04:20:17;9.80;99.90
11894;DHT22;6006;49.696;8.662;2023-04-29T04:22:44;9.80;99.90
11894;DHT22;6006;49.696;8.662;2023-04-29T04:25:11;9.80;99.90
11894;DHT22;6006;49.696;8.662;2023-04-29T04:27:38;9.90;99.90
11894;DHT22;6006;49.696;8.662;2023-04-29T04:30:06;9.90;99.90
11894;DHT22;6006;49.696;8.662;2023-04-29T04:32:35;9.90;99.90
11894;DHT22;6006;49.696;8.662;2023-04-29T04:35:02;10.00;99.90
11894;DHT22;6006;49.696;8.662;2023-04-29T04:37:29;10.00;99.90
11894;DHT22;6006;49.696;8.662;2023-04-29T04:39:56;10.00;99.90
11894;DHT22;6006;49.696;8.662;2023-04-29T04:42:22;10.10;99.90
11894;DHT22;6006;49.696;8.662;2023-04-29T04:44:49;10.10;99.90
11894;DHT22;6006;49.696;8.662;2023-04-29T04:47:16;10.20;99.90
11894;DHT22;6006;49.696;8.662;2023-04-29T04:49:44;10.20;99.90
11894;DHT22;6006;49.696;8.662;2023-04-29T04:52:11;10.20;99.90
11894;DHT22;6006;49.696;8.662;2023-04-29T04:54:38;10.20;99.90
11894;DHT22;6006;49.696;8.662;2023-04-29T04:57:05;10.30;99.90
11894;DHT22;6006;49.696;8.662;2023-04-29T04:59:32;10.30;99.90
11894;DHT22;6006;49.696;8.662;2023-04-29T05:01:59;10.30;99.90
11894;DHT22;6006;49.696;8.662;2023-04-29T05:04:26;10.30;99.90
11894;DHT22;6006;49.696;8.662;2023-04-29T05:06:54;10.30;99.90
11894;DHT22;6006;49.696;8.662;2023-04-29T05:09:21;10.40;99.90
11894;DHT22;6006;49.696;8.662;2023-04-29T05:11:48;10.40;99.90
11894;DHT22;6006;49.696;8.662;2023-04-29T05:14:14;10.40;99.90
11894;DHT22;6006;49.696;8.662;2023-04-29T05:16:42;10.40;99.90
11894;DHT22;6006;49.696;8.662;2023-04-29T05:19:11;10.40;99.90
11894;DHT22;6006;49.696;8.662;2023-04-29T05:21:37;10.50;99.90
11894;DHT22;6006;49.696;8.662;2023-04-29T05:24:06;10.50;99.90
11894;DHT22;6006;49.696;8.662;2023-04-29T05:26:33;10.50;99.90
11894;DHT22;6006;49.696;8.662;2023-04-29T05:28:59;10.60;99.90
11894;DHT22;6006;49.696;8.662;2023-04-29T05:31:26;10.60;99.90
11894;DHT22;6006;49.696;8.662;2023-04-29T05:33:53;10.70;99.90
11894;DHT22;6006;49.696;8.662;2023-04-29T05:36:20;10.60;99.90
11894;DHT22;6006;49.696;8.662;2023-04-29T05:38:47;10.70;99.90
11894;DHT22;6006;49.696;8.662;2023-04-29T05:41:15;10.70;99.90
11894;DHT22;6006;49.696;8.662;2023-04-29T05:43:42;10.70;99.90
11894;DHT22;6006;49.696;8.662;2023-04-29T05:46:08;10.70;99.90
11894;DHT22;6006;49.696;8.662;2023-04-29T05:48:35;10.70;99.90
11894;DHT22;6006;49.696;8.662;2023-04-29T05:51:02;10.80;99.90
11894;DHT22;6006;49.696;8.662;2023-04-29T05:53:29;10.90;99.90
11894;DHT22;6006;49.696;8.662;2023-04-29T05:55:57;10.90;99.90
11894;DHT22;6006;49.696;8.662;2023-04-29T05:58:25;11.00;99.90
11894;DHT22;6006;49.696;8.662;2023-04-29T06:00:52;11.00;99.90
11894;DHT22;6006;49.696;8.662;2023-04-29T06:03:19;11.10;99.90
11894;DHT22;6006;49.696;8.662;2023-04-29T06:05:46;11.10;99.90
11894;DHT22;6006;49.696;8.662;2023-04-29T06:08:13;11.20;99.90
11894;DHT22;6006;49.696;8.662;2023-04-29T06:10:39;11.30;99.90
11894;DHT22;6006;49.696;8.662;2023-04-29T06:13:06;11.30;99.90
11894;DHT22;6006;49.696;8.662;2023-04-29T06:15:34;11.30;99.90
11894;DHT22;6006;49.696;8.662;2023-04-29T06:18:01;11.30;99.90
11894;DHT22;6006;49.696;8.662;2023-04-29T06:20:28;11.40;99.90
11894;DHT22;6006;49.696;8.662;2023-04-29T06:22:55;11.50;99.90
11894;DHT22;6006;49.696;8.662;2023-04-29T06:25:22;11.50;99.90
11894;DHT22;6006;49.696;8.662;2023-04-29T06:27:48;11.60;99.90
11894;DHT22;6006;49.696;8.662;2023-04-29T06:30:15;11.70;99.90
11894;DHT22;6006;49.696;8.662;2023-04-29T06:32:43;11.90;99.90
11894;DHT22;6006;49.696;8.662;2023-04-29T06:35:10;12.10;99.90
11894;DHT22;6006;49.696;8.662;2023-04-29T06:37:37;12.20;99.90
11894;DHT22;6006;49.696;8.662;2023-04-29T06:40:05;12.20;99.90
11894;DHT22;6006;49.696;8.662;2023-04-29T06:42:32;12.30;99.90
11894;DHT22;6006;49.696;8.662;2023-04-29T06:44:59;12.10;99.90
11894;DHT22;6006;49.696;8.662;2023-04-29T06:47:26;12.00;99.90
11894;DHT22;6006;49.696;8.662;2023-04-29T06:49:54;12.10;99.90
11894;DHT22;6006;49.696;8.662;2023-04-29T06:52:21;11.90;99.90
11894;DHT22;6006;49.696;8.662;2023-04-29T06:54:47;12.00;99.90
11894;DHT22;6006;49.696;8.662;2023-04-29T06:57:14;12.10;99.90
11894;DHT22;6006;49.696;8.662;2023-04-29T06:59:41;12.20;99.90
11894;DHT22;6006;49.696;8.662;2023-04-29T07:02:08;12.10;99.90
11894;DHT22;6006;49.696;8.662;2023-04-29T07:04:35;12.00;99.90
11894;DHT22;6006;49.696;8.662;2023-04-29T07:07:04;12.00;99.90
11894;DHT22;6006;49.696;8.662;2023-04-29T07:09:31;12.10;99.90
11894;DHT22;6006;49.696;8.662;2023-04-29T07:11:57;12.30;99.90
11894;DHT22;6006;49.696;8.662;2023-04-29T07:14:25;12.50;99.90
11894;DHT22;6006;49.696;8.662;2023-04-29T07:16:52;12.50;99.90
11894;DHT22;6006;49.696;8.662;2023-04-29T07:19:20;12.70;99.90
11894;DHT22;6006;49.696;8.662;2023-04-29T07:21:46;12.80;99.90
11894;DHT22;6006;49.696;8.662;2023-04-29T07:24:15;12.80;99.90
11894;DHT22;6006;49.696;8.662;2023-04-29T07:26:42;13.00;99.90
11894;DHT22;6006;49.696;8.662;2023-04-29T07:29:10;12.80;99.90
11894;DHT22;6006;49.696;8.662;2023-04-29T07:31:36;12.80;99.90
11894;DHT22;6006;49.696;8.662;2023-04-29T07:34:03;12.80;99.90
11894;DHT22;6006;49.696;8.662;2023-04-29T07:36:30;12.60;99.90
11894;DHT22;6006;49.696;8.662;2023-04-29T07:38:57;12.50;99.90
11894;DHT22;6006;49.696;8.662;2023-04-29T07:41:26;12.30;99.90
11894;DHT22;6006;49.696;8.662;2023-04-29T07:43:53;12.60;99.90
11894;DHT22;6006;49.696;8.662;2023-04-29T07:46:20;12.70;99.90
11894;DHT22;6006;49.696;8.662;2023-04-29T07:48:47;13.00;99.90
11894;DHT22;6006;49.696;8.662;2023-04-29T07:51:14;12.80;99.90
11894;DHT22;6006;49.696;8.662;2023-04-29T07:53:41;12.80;99.90
11894;DHT22;6006;49.696;8.662;2023-04-29T07:56:08;12.90;99.90
11894;DHT22;6006;49.696;8.662;2023-04-29T07:58:36;12.80;99.90
11894;DHT22;6006;49.696;8.662;2023-04-29T08:01:07;12.90;99.90
11894;DHT22;6006;49.696;8.662;2023-04-29T08:03:34;12.50;99.90
11894;DHT22;6006;49.696;8.662;2023-04-29T08:06:02;12.60;99.90
11894;DHT22;6006;49.696;8.662;2023-04-29T08:08:29;12.80;99.90
11894;DHT22;6006;49.696;8.662;2023-04-29T08:10:56;13.20;99.90
11894;DHT22;6006;49.696;8.662;2023-04-29T08:13:23;13.30;99.90
11894;DHT22;6006;49.696;8.662;2023-04-29T08:15:52;13.50;99.90
11894;DHT22;6006;49.696;8.662;2023-04-29T08:18:18;13.90;71.80
11894;DHT22;6006;49.696;8.662;2023-04-29T08:20:47;14.00;1.00
11894;DHT22;6006;49.696;8.662;2023-04-29T08:23:14;14.10;1.00
11894;DHT22;6006;49.696;8.662;2023-04-29T08:25:42;14.00;1.00
11894;DHT22;6006;49.696;8.662;2023-04-29T08:28:09;13.90;1.00
11894;DHT22;6006;49.696;8.662;2023-04-29T08:30:38;13.90;1.00
11894;DHT22;6006;49.696;8.662;2023-04-29T08:33:06;14.00;1.00
11894;DHT22;6006;49.696;8.662;2023-04-29T08:35:33;14.30;1.00
11894;DHT22;6006;49.696;8.662;2023-04-29T08:38:03;14.70;99.90
11894;DHT22;6006;49.696;8.662;2023-04-29T08:40:32;15.00;1.00
11894;DHT22;6006;49.696;8.662;2023-04-29T08:43:00;14.90;1.00
11894;DHT22;6006;49.696;8.662;2023-04-29T08:45:27;14.60;1.00
11894;DHT22;6006;49.696;8.662;2023-04-29T08:47:55;14.30;1.00
11894;DHT22;6006;49.696;8.662;2023-04-29T08:50:24;14.30;1.00
11894;DHT22;6006;49.696;8.662;2023-04-29T08:52:51;14.00;1.00
11894;DHT22;6006;49.696;8.662;2023-04-29T08:55:18;13.70;1.00
11894;DHT22;6006;49.696;8.662;2023-04-29T08:57:46;13.80;1.00
11894;DHT22;6006;49.696;8.662;2023-04-29T09:00:15;14.20;1.00
11894;DHT22;6006;49.696;8.662;2023-04-29T09:02:45;14.30;99.90
11894;DHT22;6006;49.696;8.662;2023-04-29T09:05:13;14.50;1.00
11894;DHT22;6006;49.696;8.662;2023-04-29T09:07:41;14.60;1.00
11894;DHT22;6006;49.696;8.662;2023-04-29T09:10:09;14.70;99.90
11894;DHT22;6006;49.696;8.662;2023-04-29T09:12:36;14.10;1.00
11894;DHT22;6006;49.696;8.662;2023-04-29T09:15:04;14.30;99.90
11894;DHT22;6006;49.696;8.662;2023-04-29T09:17:41;14.50;1.00
11894;DHT22;6006;49.696;8.662;2023-04-29T09:20:26;14.60;1.00
11894;DHT22;6006;49.696;8.662;2023-04-29T09:22:56;14.70;1.00
11894;DHT22;6006;49.696;8.662;2023-04-29T09:25:23;14.40;1.00
11894;DHT22;6006;49.696;8.662;2023-04-29T09:27:51;14.20;99.90
11894;DHT22;6006;49.696;8.662;2023-04-29T09:30:18;14.10;1.00
11894;DHT22;6006;49.696;8.662;2023-04-29T09:32:47;14.50;99.90
11894;DHT22;6006;49.696;8.662;2023-04-29T09:35:29;14.50;99.90
11894;DHT22;6006;49.696;8.662;2023-04-29T09:38:08;14.60;1.00
11894;DHT22;6006;49.696;8.662;2023-04-29T09:40:35;14.40;1.00
11894;DHT22;6006;49.696;8.662;2023-04-29T09:43:02;13.80;1.00
11894;DHT22;6006;49.696;8.662;2023-04-29T09:45:33;13.50;1.00
11894;DHT22;6006;49.696;8.662;2023-04-29T09:48:01;13.60;99.90
11894;DHT22;6006;49.696;8.662;2023-04-29T09:50:29;13.60;1.00
11894;DHT22;6006;49.696;8.662;2023-04-29T09:52:57;13.80;1.40
11894;DHT22;6006;49.696;8.662;2023-04-29T09:55:25;14.10;1.00
11894;DHT22;6006;49.696;8.662;2023-04-29T09:57:52;14.20;1.00
11894;DHT22;6006;49.696;8.662;2023-04-29T10:00:19;14.40;99.90
11894;DHT22;6006;49.696;8.662;2023-04-29T10:02:47;14.40;99.90
11894;DHT22;6006;49.696;8.662;2023-04-29T10:05:16;13.90;1.00
11894;DHT22;6006;49.696;8.662;2023-04-29T10:07:45;13.70;1.00
11894;DHT22;6006;49.696;8.662;2023-04-29T10:10:12;13.80;1.00
11894;DHT22;6006;49.696;8.662;2023-04-29T10:12:41;13.90;1.00
11894;DHT22;6006;49.696;8.662;2023-04-29T10:15:21;14.10;1.00
11894;DHT22;6006;49.696;8.662;2023-04-29T10:17:53;14.20;1.00
11894;DHT22;6006;49.696;8.662;2023-04-29T10:20:22;14.10;1.00
11894;DHT22;6006;49.696;8.662;2023-04-29T10:22:50;14.40;99.90
11894;DHT22;6006;49.696;8.662;2023-04-29T10:25:18;14.60;99.90
11894;DHT22;6006;49.696;8.662;2023-04-29T10:27:47;14.30;99.90
11894;DHT22;6006;49.696;8.662;2023-04-29T10:30:17;14.50;1.00
11894;DHT22;6006;49.696;8.662;2023-04-29T10:32:45;15.00;1.00
11894;DHT22;6006;49.696;8.662;2023-04-29T10:35:13;14.90;99.90
11894;DHT22;6006;49.696;8.662;2023-04-29T10:37:40;14.70;1.00
11894;DHT22;6006;49.696;8.662;2023-04-29T10:40:11;13.90;99.90
11894;DHT22;6006;49.696;8.662;2023-04-29T10:42:44;14.20;99.90
11894;DHT22;6006;49.696;8.662;2023-04-29T10:45:33;14.30;99.90
11894;DHT22;6006;49.696;8.662;2023-04-29T10:48:14;14.10;1.00
11894;DHT22;6006;49.696;8.662;2023-04-29T10:51:02;14.30;99.90
11894;DHT22;6006;49.696;8.662;2023-04-29T10:53:29;15.10;1.00
11894;DHT22;6006;49.696;8.662;2023-04-29T10:55:58;14.70;1.00
11894;DHT22;6006;49.696;8.662;2023-04-29T10:58:44;14.50;1.00
11894;DHT22;6006;49.696;8.662;2023-04-29T11:01:13;14.30;1.00
11894;DHT22;6006;49.696;8.662;2023-04-29T11:03:45;14.80;1.00
11894;DHT22;6006;49.696;8.662;2023-04-29T11:06:13;15.10;1.00
11894;DHT22;6006;49.696;8.662;2023-04-29T11:08:40;14.60;99.90
11894;DHT22;6006;49.696;8.662;2023-04-29T11:11:08;14.60;1.00
11894;DHT22;6006;49.696;8.662;2023-04-29T11:13:38;14.80;99.90
11894;DHT22;6006;49.696;8.662;2023-04-29T11:16:05;14.80;1.00
11894;DHT22;6006;49.696;8.662;2023-04-29T11:18:34;15.00;1.00
11894;DHT22;6006;49.696;8.662;2023-04-29T11:21:14;14.80;1.00
11894;DHT22;6006;49.696;8.662;2023-04-29T11:23:40;14.70;1.00
11894;DHT22;6006;49.696;8.662;2023-04-29T11:26:09;15.40;1.00
11894;DHT22;6006;49.696;8.662;2023-04-29T11:28:37;15.80;1.00
11894;DHT22;6006;49.696;8.662;2023-04-29T11:31:06;14.90;99.90
11894;DHT22;6006;49.696;8.662;2023-04-29T11:33:34;14.80;1.00
11894;DHT22;6006;49.696;8.662;2023-04-29T11:36:02;15.10;96.50
11894;DHT22;6006;49.696;8.662;2023-04-29T11:38:30;14.40;47.80
11894;DHT22;6006;49.696;8.662;2023-04-29T11:40:58;14.00;1.00
11894;DHT22;6006;49.696;8.662;2023-04-29T11:43:25;13.80;99.90
11894;DHT22;6006;49.696;8.662;2023-04-29T11:45:52;13.50;99.90
11894;DHT22;6006;49.696;8.662;2023-04-29T11:48:20;13.80;1.00
11894;DHT22;6006;49.696;8.662;2023-04-29T11:50:49;13.80;99.90
11894;DHT22;6006;49.696;8.662;2023-04-29T11:53:18;14.40;1.00
11894;DHT22;6006;49.696;8.662;2023-04-29T11:55:45;14.30;99.90
11894;DHT22;6006;49.696;8.662;2023-04-29T11:58:13;14.80;99.90
11894;DHT22;6006;49.696;8.662;2023-04-29T12:00:40;14.90;99.90
11894;DHT22;6006;49.696;8.662;2023-04-29T12:03:12;14.80;99.90
11894;DHT22;6006;49.696;8.662;2023-04-29T12:05:39;14.60;1.00
11894;DHT22;6006;49.696;8.662;2023-04-29T12:08:07;14.90;99.90
11894;DHT22;6006;49.696;8.662;2023-04-29T12:10:35;15.50;99.90
11894;DHT22;6006;49.696;8.662;2023-04-29T12:13:02;15.90;1.00
11894;DHT22;6006;49.696;8.662;2023-04-29T12:15:29;14.90;1.00
11894;DHT22;6006;49.696;8.662;2023-04-29T12:17:57;14.90;99.90
11894;DHT22;6006;49.696;8.662;2023-04-29T12:20:24;14.40;1.00
11894;DHT22;6006;49.696;8.662;2023-04-29T12:22:51;14.40;14.40
11894;DHT22;6006;49.696;8.662;2023-04-29T12:25:24;14.60;1.00
11894;DHT22;6006;49.696;8.662;2023-04-29T12:27:51;14.80;1.00
11894;DHT22;6006;49.696;8.662;2023-04-29T12:30:19;14.10;1.00
11894;DHT22;6006;49.696;8.662;2023-04-29T12:32:46;14.30;1.00
11894;DHT22;6006;49.696;8.662;2023-04-29T12:35:14;14.30;1.00
11894;DHT22;6006;49.696;8.662;2023-04-29T12:37:42;14.50;1.00
11894;DHT22;6006;49.696;8.662;2023-04-29T12:40:12;14.40;1.00
11894;DHT22;6006;49.696;8.662;2023-04-29T12:42:42;14.80;1.00
11894;DHT22;6006;49.696;8.662;2023-04-29T12:45:25;14.60;1.00
11894;DHT22;6006;49.696;8.662;2023-04-29T12:47:52;14.20;99.90
11894;DHT22;6006;49.696;8.662;2023-04-29T12:50:19;14.20;99.90
11894;DHT22;6006;49.696;8.662;2023-04-29T12:52:46;14.80;99.90
11894;DHT22;6006;49.696;8.662;2023-04-29T12:55:13;14.60;1.00
11894;DHT22;6006;49.696;8.662;2023-04-29T12:57:42;14.90;1.00
11894;DHT22;6006;49.696;8.662;2023-04-29T13:00:10;15.50;1.00
11894;DHT22;6006;49.696;8.662;2023-04-29T13:02:37;15.90;1.00
11894;DHT22;6006;49.696;8.662;2023-04-29T13:05:04;15.90;1.00
11894;DHT22;6006;49.696;8.662;2023-04-29T13:07:31;16.30;99.90
11894;DHT22;6006;49.696;8.662;2023-04-29T13:09:57;16.10;6.70
11894;DHT22;6006;49.696;8.662;2023-04-29T13:12:24;15.70;1.00
11894;DHT22;6006;49.696;8.662;2023-04-29T13:14:53;16.00;96.50
11894;DHT22;6006;49.696;8.662;2023-04-29T13:17:20;16.70;1.00
11894;DHT22;6006;49.696;8.662;2023-04-29T13:19:47;16.40;99.90
11894;DHT22;6006;49.696;8.662;2023-04-29T13:22:15;17.20;1.00
11894;DHT22;6006;49.696;8.662;2023-04-29T13:24:42;16.90;99.90
11894;DHT22;6006;49.696;8.662;2023-04-29T13:27:08;16.90;99.90
11894;DHT22;6006;49.696;8.662;2023-04-29T13:29:35;17.50;1.00
11894;DHT22;6006;49.696;8.662;2023-04-29T13:32:04;16.90;1.00
11894;DHT22;6006;49.696;8.662;2023-04-29T13:34:31;17.00;1.00
11894;DHT22;6006;49.696;8.662;2023-04-29T13:36:57;16.60;99.90
11894;DHT22;6006;49.696;8.662;2023-04-29T13:39:24;16.30;99.90
11894;DHT22;6006;49.696;8.662;2023-04-29T13:41:51;15.80;99.90
11894;DHT22;6006;49.696;8.662;2023-04-29T13:44:18;15.00;99.90
11894;DHT22;6006;49.696;8.662;2023-04-29T13:46:44;15.40;1.00
11894;DHT22;6006;49.696;8.662;2023-04-29T13:49:13;15.80;1.00
11894;DHT22;6006;49.696;8.662;2023-04-29T13:51:40;15.80;1.00
11894;DHT22;6006;49.696;8.662;2023-04-29T13:54:07;16.10;99.90
11894;DHT22;6006;49.696;8.662;2023-04-29T13:56:33;16.30;99.90
11894;DHT22;6006;49.696;8.662;2023-04-29T13:59:00;16.00;99.90
11894;DHT22;6006;49.696;8.662;2023-04-29T14:01:27;15.90;93.30
11894;DHT22;6006;49.696;8.662;2023-04-29T14:03:54;15.70;1.00
11894;DHT22;6006;49.696;8.662;2023-04-29T14:06:22;15.80;1.00
11894;DHT22;6006;49.696;8.662;2023-04-29T14:08:49;16.00;99.90
11894;DHT22;6006;49.696;8.662;2023-04-29T14:11:16;16.20;1.00
11894;DHT22;6006;49.696;8.662;2023-04-29T14:13:44;16.30;1.00
11894;DHT22;6006;49.696;8.662;2023-04-29T14:16:10;15.60;84.50
11894;DHT22;6006;49.696;8.662;2023-04-29T14:18:37;15.60;99.90
11894;DHT22;6006;49.696;8.662;2023-04-29T14:21:04;15.60;1.00
11894;DHT22;6006;49.696;8.662;2023-04-29T14:23:32;15.40;99.90
11894;DHT22;6006;49.696;8.662;2023-04-29T14:25:59;15.20;99.90
11894;DHT22;6006;49.696;8.662;2023-04-29T14:28:26;15.10;99.90
11894;DHT22;6006;49.696;8.662;2023-04-29T14:30:53;15.10;1.00
11894;DHT22;6006;49.696;8.662;2023-04-29T14:33:20;15.20;1.00
11894;DHT22;6006;49.696;8.662;2023-04-29T14:35:46;15.10;99.90
11894;DHT22;6006;49.696;8.662;2023-04-29T14:38:13;15.10;99.90
11894;DHT22;6006;49.696;8.662;2023-04-29T14:40:41;14.80;1.00
11894;DHT22;6006;49.696;8.662;2023-04-29T14:43:08;14.90;1.00
11894;DHT22;6006;49.696;8.662;2023-04-29T14:45:36;14.70;95.80
11894;DHT22;6006;49.696;8.662;2023-04-29T14:48:03;14.80;1.00
11894;DHT22;6006;49.696;8.662;2023-04-29T14:50:30;14.80;24.00
11894;DHT22;6006;49.696;8.662;2023-04-29T14:52:57;14.70;1.00
11894;DHT22;6006;49.696;8.662;2023-04-29T14:55:24;14.80;1.00
11894;DHT22;6006;49.696;8.662;2023-04-29T14:57:52;15.10;1.00
11894;DHT22;6006;49.696;8.662;2023-04-29T15:00:19;15.10;99.90
11894;DHT22;6006;49.696;8.662;2023-04-29T15:02:46;15.30;1.00
11894;DHT22;6006;49.696;8.662;2023-04-29T15:05:15;15.30;1.00
11894;DHT22;6006;49.696;8.662;2023-04-29T15:07:42;15.30;99.90
11894;DHT22;6006;49.696;8.662;2023-04-29T15:10:09;15.50;99.90
11894;DHT22;6006;49.696;8.662;2023-04-29T15:12:36;15.30;99.90
11894;DHT22;6006;49.696;8.662;2023-04-29T15:15:06;15.30;1.00
11894;DHT22;6006;49.696;8.662;2023-04-29T15:17:33;15.50;99.90
11894;DHT22;6006;49.696;8.662;2023-04-29T15:19:59;15.60;1.00
11894;DHT22;6006;49.696;8.662;2023-04-29T15:22:26;15.40;1.00
11894;DHT22;6006;49.696;8.662;2023-04-29T15:24:53;15.50;99.90
11894;DHT22;6006;49.696;8.662;2023-04-29T15:27:20;15.50;99.90
11894;DHT22;6006;49.696;8.662;2023-04-29T15:29:47;15.50;1.00
11894;DHT22;6006;49.696;8.662;2023-04-29T15:32:15;15.60;1.00
11894;DHT22;6006;49.696;8.662;2023-04-29T15:34:42;15.70;1.00
11894;DHT22;6006;49.696;8.662;2023-04-29T15:37:09;15.70;1.00
11894;DHT22;6006;49.696;8.662;2023-04-29T15:39:35;15.70;1.00
11894;DHT22;6006;49.696;8.662;2023-04-29T15:42:02;15.40;63.40
11894;DHT22;6006;49.696;8.662;2023-04-29T15:44:29;15.60;1.00
11894;DHT22;6006;49.696;8.662;2023-04-29T15:46:57;15.70;84.60
11894;DHT22;6006;49.696;8.662;2023-04-29T15:49:25;15.40;1.00
11894;DHT22;6006;49.696;8.662;2023-04-29T15:51:52;15.30;99.90
11894;DHT22;6006;49.696;8.662;2023-04-29T15:54:19;15.40;99.90
11894;DHT22;6006;49.696;8.662;2023-04-29T15:56:47;15.60;99.90
11894;DHT22;6006;49.696;8.662;2023-04-29T15:59:15;15.70;1.00
11894;DHT22;6006;49.696;8.662;2023-04-29T16:01:42;15.50;1.00